EGGPGCRR

Guest
Details From EGGP - Liverpool
To GCRR - Lanzarote
Flight Number -
Tags decoded
Created
Modified
Stats Distance 1,604 nm / 2,970 km
Max Altitude 0 ft / 0 m
Waypoints 7
Social Downloads 0
Likes 0
Share VATSIM

Download

Looking for another format? Having issues loading an existing format? Contact us
Advertisement - Login to hide

Notes

Requested: EGGP WAL BASGO LASNO T9 BEGAS DEMOS DEVLA GCRR Unmatched points: T9

Route

EGGP WAL LASNO BEGAS DEMOS DEVLA GCRR

ID Type Via Altitude Latitude Longitude Leg Dist Tot Dist Heading (true) Name
O EGGP APT - 0 ft / 0 m 53.33363˚ -2.84977˚ - 0 nm - Liverpool
WAL VOR - 0 ft / 0 m 53.39194˚ -3.13444˚ 10 nm 10 nm 289° / 289° WALLASEY VOR-DME
LASNO FIX - 0 ft / 0 m 48.59833˚ -9.00000˚ 363 nm 373 nm 220° / 215° -
BEGAS FIX - 0 ft / 0 m 45.00000˚ -9.00000˚ 216 nm 590 nm 180° / 180° -
DEMOS FIX - 0 ft / 0 m 41.92570˚ -9.36200˚ 185 nm 775 nm 185° / 185° -
DEVLA FIX - 0 ft / 0 m 29.24806˚ -12.71833˚ 778 nm 1553 nm 193° / 191° -
O GCRR APT - 0 ft / 0 m 28.94547˚ -13.60522˚ 49 nm 1603 nm 249° / 248° Lanzarote

Altitude Profile

Advertisement - Login to hide

Weather


0- 5 10 15 20 25 30 35+ Temperature / ° C

Clouds and Precipitation
Forecast for 2018-05-25 06:00 UTC. Updated 43 minutes ago

Ground ~20,000 ft ~40,000 ft Winds

EGGP

Details ICAO EGGP (LPL)
Name Liverpool
Region United Kingdom
Timezone Europe/London (UTC+1.0)
Stats Elevation 80 ft / 24 m (AMSL)
Location 53.333632° -2.849769°
Runways 1
Magnetic Variation 1.604° W

METAR

EGGP 250550Z 36004KT 310V030 CAVOK 14/10 Q1020

Decode

TAF

TAF TAF EGGP 250457Z 2506/2606 04009KT 9999 FEW045 TEMPO 2506/2515 7000 SHRA PROB30 TEMPO 2509/2514 3000 +SHRA BKN014 TEMPO 2514/2524 BKN012 PROB30 TEMPO 2521/2606 8000 BKN008

Decode

Departure Runways

ID Width Length Bearing (true) Bearing (mag) Surface Threshold Offset Overrun Length
09 151 ft / 46 m 7,466 ft / 2,276 m 85.59° 87.19° Asphalt 180 ft / 55 m 0 ft / 0 m
27 151 ft / 46 m 7,466 ft / 2,276 m 265.61° 267.21° Asphalt 0 ft / 0 m 0 ft / 0 m

GCRR

Details ICAO GCRR (ACE)
Name Lanzarote
Region Canary Islands
Timezone Atlantic/Canary (UTC+1.0)
Stats Elevation 0 ft / 0 m (AMSL)
Location 28.945466° -13.605223°
Runways 1
Magnetic Variation 3.925° W

METAR

GCRR 250600Z 33012KT 9999 FEW025 BKN048 18/14 Q1017

Decode

TAF

TAF GCRR 250200Z 2503/2603 01009KT 9999 SCT030 TX25/2514Z TN16/2505Z

Decode

Destination Runways

ID Width Length Bearing (true) Bearing (mag) Surface Threshold Offset Overrun Length
03 148 ft / 45 m 7,893 ft / 2,406 m 26.90° 30.83° Asphalt 197 ft / 60 m 197 ft / 60 m
21 148 ft / 45 m 7,893 ft / 2,406 m 206.91° 210.84° Asphalt 197 ft / 60 m 197 ft / 60 m

Approach Navaids

Runway Type Ident Frequency Range Bearing (true) Bearing (mag) Slope Elevation
03 Localiser IRR 109.10 MHz 18 nm / 33 km 26.90° 30.83° - 47 ft / 14 m (AMSL)
03 Glidescope IRR 109.10 MHz 10 nm / 19 km 26.90° 30.83° 3.00° 0 ft / 0 m (AMSL)
03 DME IRR 109.10 MHz 18 nm / 33 km - - - 36 ft / 11 m (AMSL)

Popular Alternatives